Time;durP1;ratioP1;P1;durP2;ratioP2;P2;SDS_P1;SDS_P2;PMS_P1;PMS_P2;Temp;Humidity;BMP_temperature;BMP_pressure;BME280_temperature;BME280_humidity;BME280_pressure;Samples;Min_cycle;Max_cycle;Signal;HPM_P1;HPM_P2
2022/12/04 00:02:09;;;;;;;76.45;33.15;;;;;;;;;;5009669;28;99183;-64
2022/12/04 00:04:35;;;;;;;77.22;34.08;;;;;;;;;;5017971;27;99211;-64
2022/12/04 00:07:02;;;;;;;74.72;35.20;;;;;;;;;;5001185;28;100467;-63
2022/12/04 00:09:28;;;;;;;76.43;33.38;;;;;;;;;;5008879;28;100040;-63
2022/12/04 00:11:54;;;;;;;71.88;33.42;;;;;;;;;;4996187;28;99889;-64
2022/12/04 00:14:21;;;;;;;70.35;31.23;;;;;;;;;;5004887;28;98617;-64
2022/12/04 00:16:49;;;;;;;73.97;33.35;;;;;;;;;;5008434;28;99569;-63
2022/12/04 00:19:15;;;;;;;70.55;31.77;;;;;;;;;;5006020;28;99675;-63
2022/12/04 00:21:44;;;;;;;80.47;34.85;;;;;;;;;;5007321;28;98534;-63
2022/12/04 00:24:10;;;;;;;73.47;32.72;;;;;;;;;;5018031;28;100306;-63
2022/12/04 00:26:36;;;;;;;76.45;33.08;;;;;;;;;;5010456;28;99382;-63
2022/12/04 00:29:02;;;;;;;72.47;33.75;;;;;;;;;;5008079;28;99239;-63
2022/12/04 00:31:29;;;;;;;71.25;32.15;;;;;;;;;;5007230;28;99418;-63
2022/12/04 00:33:56;;;;;;;72.03;31.83;;;;;;;;;;5007537;28;98533;-63
2022/12/04 00:36:24;;;;;;;80.00;35.25;;;;;;;;;;5005772;28;100225;-63
2022/12/04 00:38:51;;;;;;;81.47;34.92;;;;;;;;;;5014680;27;99580;-62
2022/12/04 00:41:19;;;;;;;72.85;34.00;;;;;;;;;;5019257;27;99545;-63
2022/12/04 00:43:45;;;;;;;74.75;35.33;;;;;;;;;;5007827;28;98863;-63
2022/12/04 00:46:12;;;;;;;72.32;32.00;;;;;;;;;;5014539;27;99869;-63
2022/12/04 00:48:39;;;;;;;79.53;33.70;;;;;;;;;;5017050;28;99301;-64
2022/12/04 00:51:06;;;;;;;74.00;35.58;;;;;;;;;;5013040;28;99957;-63
2022/12/04 00:53:32;;;;;;;75.15;34.42;;;;;;;;;;5021930;28;98872;-63
2022/12/04 00:56:02;;;;;;;73.95;33.58;;;;;;;;;;5015833;27;99255;-63
2022/12/04 00:58:28;;;;;;;79.25;34.72;;;;;;;;;;5030493;28;99581;-62
2022/12/04 01:01:00;;;;;;;73.25;33.38;;;;;;;;;;5017193;27;98709;-63
2022/12/04 01:03:27;;;;;;;79.68;35.75;;;;;;;;;;5013941;28;99991;-63
2022/12/04 01:05:53;;;;;;;78.30;36.08;;;;;;;;;;5004476;28;97854;-63
2022/12/04 01:08:19;;;;;;;74.32;35.05;;;;;;;;;;5008883;28;98709;-63
2022/12/04 01:10:46;;;;;;;77.25;33.15;;;;;;;;;;5012714;28;100313;-62
2022/12/04 01:13:12;;;;;;;73.20;34.78;;;;;;;;;;5010417;28;99291;-64
2022/12/04 01:15:39;;;;;;;76.47;33.95;;;;;;;;;;5009110;28;100370;-63
2022/12/04 01:18:05;;;;;;;79.40;35.75;;;;;;;;;;5009846;28;100469;-63
2022/12/04 01:20:31;;;;;;;75.03;34.13;;;;;;;;;;5007807;28;99270;-63
2022/12/04 01:22:58;;;;;;;80.43;35.45;;;;;;;;;;5003870;28;99590;-63
2022/12/04 01:25:24;;;;;;;78.53;35.75;;;;;;;;;;5015418;28;99514;-63
2022/12/04 01:27:50;;;;;;;81.10;35.35;;;;;;;;;;5021055;28;100137;-63
2022/12/04 01:30:16;;;;;;;78.00;36.22;;;;;;;;;;5031739;27;99383;-64
2022/12/04 01:32:43;;;;;;;76.55;35.10;;;;;;;;;;5019458;27;99014;-63
2022/12/04 01:35:09;;;;;;;76.32;33.97;;;;;;;;;;5017961;28;100573;-63
2022/12/04 01:37:35;;;;;;;76.55;35.97;;;;;;;;;;5002609;28;100624;-62
2022/12/04 01:40:02;;;;;;;76.55;34.08;;;;;;;;;;5014483;28;98525;-63
2022/12/04 01:42:28;;;;;;;73.25;33.58;;;;;;;;;;5008025;27;99227;-63
2022/12/04 01:45:13;;;;;;;75.65;35.38;;;;;;;;;;5021504;28;100519;-62
2022/12/04 01:47:40;;;;;;;71.47;33.83;;;;;;;;;;5008777;28;98615;-63
2022/12/04 01:50:06;;;;;;;76.95;35.80;;;;;;;;;;5016206;28;99224;-64
2022/12/04 01:52:32;;;;;;;79.13;35.13;;;;;;;;;;5015209;28;99654;-63
2022/12/04 01:55:00;;;;;;;78.95;35.13;;;;;;;;;;5010865;28;100516;-63
2022/12/04 01:57:28;;;;;;;79.53;34.50;;;;;;;;;;5009185;28;99467;-62
2022/12/04 01:59:56;;;;;;;76.95;35.78;;;;;;;;;;5005931;28;98678;-63
2022/12/04 02:02:28;;;;;;;72.60;33.47;;;;;;;;;;5010301;28;99600;-64
2022/12/04 02:04:55;;;;;;;71.68;33.85;;;;;;;;;;5003605;28;100450;-64
2022/12/04 02:07:21;;;;;;;78.22;34.47;;;;;;;;;;5012328;27;98528;-63
2022/12/04 02:09:52;;;;;;;73.72;34.45;;;;;;;;;;5023365;28;100394;-63
2022/12/04 02:12:22;;;;;;;71.10;34.70;;;;;;;;;;5014704;27;99492;-61
2022/12/04 02:14:55;;;;;;;77.03;34.73;;;;;;;;;;5013006;28;99848;-62
2022/12/04 02:17:26;;;;;;;75.93;35.55;;;;;;;;;;5007164;28;99838;-62
2022/12/04 02:20:31;;;;;;;76.30;35.85;;;;;;;;;;5014418;28;99318;-63
2022/12/04 02:23:16;;;;;;;74.22;33.85;;;;;;;;;;5001430;28;100064;-63
2022/12/04 02:25:45;;;;;;;67.95;31.52;;;;;;;;;;5004719;28;100586;-63
2022/12/04 02:28:11;;;;;;;66.32;31.20;;;;;;;;;;5003559;28;100123;-63
2022/12/04 02:30:38;;;;;;;74.07;35.40;;;;;;;;;;5005922;28;103083;-63
2022/12/04 02:33:16;;;;;;;71.43;33.83;;;;;;;;;;5005090;28;99584;-62
2022/12/04 02:35:47;;;;;;;75.97;34.78;;;;;;;;;;5001804;28;99085;-63
2022/12/04 02:38:21;;;;;;;78.00;35.17;;;;;;;;;;5007125;28;99706;-63
2022/12/04 02:40:47;;;;;;;73.47;34.25;;;;;;;;;;5005875;28;99377;-64
2022/12/04 02:43:13;;;;;;;78.32;34.83;;;;;;;;;;4995252;28;99455;-63
2022/12/04 02:45:43;;;;;;;67.70;33.10;;;;;;;;;;4995055;28;99063;-63
2022/12/04 02:48:10;;;;;;;75.77;36.87;;;;;;;;;;5006685;28;98688;-63
2022/12/04 02:50:39;;;;;;;76.18;34.90;;;;;;;;;;5017221;28;99838;-63
2022/12/04 02:53:13;;;;;;;83.75;35.67;;;;;;;;;;5002697;28;100264;-62
2022/12/04 02:55:45;;;;;;;85.88;36.03;;;;;;;;;;5000512;28;98477;-64
2022/12/04 02:58:16;;;;;;;70.05;34.92;;;;;;;;;;5007420;28;99069;-63
2022/12/04 03:00:44;;;;;;;74.57;33.90;;;;;;;;;;5011241;28;100401;-63
2022/12/04 03:03:16;;;;;;;77.05;37.22;;;;;;;;;;5017077;28;100114;-62
2022/12/04 03:05:50;;;;;;;72.22;34.88;;;;;;;;;;5003562;28;100037;-63
2022/12/04 03:08:20;;;;;;;76.20;34.22;;;;;;;;;;5006110;27;98942;-63
2022/12/04 03:10:50;;;;;;;80.25;36.25;;;;;;;;;;5016093;28;101078;-63
2022/12/04 03:13:19;;;;;;;79.55;36.05;;;;;;;;;;5013773;28;99720;-63
2022/12/04 03:15:46;;;;;;;75.57;35.10;;;;;;;;;;5008335;28;98589;-63
2022/12/04 03:18:19;;;;;;;75.88;34.30;;;;;;;;;;5019041;28;99259;-63
2022/12/04 03:20:46;;;;;;;80.93;37.22;;;;;;;;;;5015174;27;99608;-64
2022/12/04 03:23:21;;;;;;;69.47;34.70;;;;;;;;;;5014456;27;98692;-64
2022/12/04 03:25:53;;;;;;;70.78;34.80;;;;;;;;;;5015446;28;99627;-64
2022/12/04 03:28:32;;;;;;;81.88;36.92;;;;;;;;;;5008000;28;98646;-63
2022/12/04 03:31:02;;;;;;;75.63;35.40;;;;;;;;;;5009263;28;99256;-64
2022/12/04 03:33:30;;;;;;;73.90;34.78;;;;;;;;;;5023565;27;99527;-63
2022/12/04 03:36:19;;;;;;;73.43;34.47;;;;;;;;;;5012475;28;97790;-63
2022/12/04 03:38:51;;;;;;;70.90;34.17;;;;;;;;;;4991980;28;99909;-64
2022/12/04 03:41:35;;;;;;;73.65;35.00;;;;;;;;;;5007998;28;99580;-63
2022/12/04 03:44:05;;;;;;;79.10;36.90;;;;;;;;;;5023638;27;100055;-64
2022/12/04 03:46:35;;;;;;;72.63;34.17;;;;;;;;;;5017873;28;99509;-64
2022/12/04 03:49:10;;;;;;;78.35;34.85;;;;;;;;;;5019499;27;98595;-63
2022/12/04 03:52:01;;;;;;;77.28;35.72;;;;;;;;;;5005949;28;99410;-64
2022/12/04 03:54:29;;;;;;;81.55;37.53;;;;;;;;;;5006734;28;99482;-63
2022/12/04 03:56:58;;;;;;;73.45;34.67;;;;;;;;;;5016897;28;98631;-64
2022/12/04 03:59:30;;;;;;;71.18;34.65;;;;;;;;;;5006951;28;99472;-63
2022/12/04 04:01:58;;;;;;;75.95;36.40;;;;;;;;;;5006027;28;98536;-65
2022/12/04 04:04:29;;;;;;;72.85;35.22;;;;;;;;;;5016471;28;100050;-63
2022/12/04 04:07:01;;;;;;;74.57;35.88;;;;;;;;;;5009260;28;99225;-63
2022/12/04 04:09:30;;;;;;;78.18;34.80;;;;;;;;;;5006887;28;99508;-63
2022/12/04 04:12:03;;;;;;;69.93;34.53;;;;;;;;;;5007274;28;100230;-64
2022/12/04 04:25:43;;;;;;;73.55;33.90;;;;;;;;;;5011577;28;99334;-63
2022/12/04 04:28:29;;;;;;;73.05;34.95;;;;;;;;;;5010757;28;99307;-63
2022/12/04 04:31:00;;;;;;;70.30;32.90;;;;;;;;;;5013963;28;99475;-63
2022/12/04 04:33:27;;;;;;;81.20;34.67;;;;;;;;;;5011034;28;99768;-63
2022/12/04 04:35:58;;;;;;;73.82;34.55;;;;;;;;;;5010291;28;100249;-63
2022/12/04 04:38:24;;;;;;;;;;;;;;;;;;5008239;28;98662;-64
2022/12/04 04:41:10;;;;;;;71.95;34.80;;;;;;;;;;5010714;28;129617;-63
2022/12/04 04:43:42;;;;;;;74.15;34.85;;;;;;;;;;5010685;28;99483;-63
2022/12/04 04:46:16;;;;;;;71.93;34.53;;;;;;;;;;5001418;28;100454;-63
2022/12/04 04:48:51;;;;;;;70.28;34.70;;;;;;;;;;5012513;28;99294;-63
2022/12/04 04:51:18;;;;;;;78.20;35.50;;;;;;;;;;5014569;28;99831;-62
2022/12/04 04:53:46;;;;;;;77.30;37.33;;;;;;;;;;5016564;28;99366;-62
2022/12/04 04:56:14;;;;;;;81.97;36.65;;;;;;;;;;5015648;28;99022;-62
2022/12/04 04:58:41;;;;;;;80.07;36.65;;;;;;;;;;5030322;27;98636;-63
2022/12/04 05:01:08;;;;;;;77.18;36.17;;;;;;;;;;5027015;27;100318;-62
2022/12/04 05:03:34;;;;;;;76.50;36.22;;;;;;;;;;5026140;27;99896;-62
2022/12/04 05:06:01;;;;;;;83.70;37.53;;;;;;;;;;5014534;28;98668;-62
2022/12/04 05:08:27;;;;;;;80.40;37.15;;;;;;;;;;5008066;28;99549;-63
2022/12/04 05:10:53;;;;;;;78.10;37.28;;;;;;;;;;5009357;28;100810;-62
2022/12/04 05:13:20;;;;;;;79.50;36.50;;;;;;;;;;5010277;28;98541;-63
2022/12/04 05:15:56;;;;;;;82.65;36.50;;;;;;;;;;5009607;28;99873;-63
2022/12/04 05:18:23;;;;;;;80.15;35.33;;;;;;;;;;5014230;28;97839;-63
2022/12/04 05:20:49;;;;;;;76.43;33.92;;;;;;;;;;5025989;27;101053;-63
2022/12/04 05:23:15;;;;;;;71.07;34.92;;;;;;;;;;5016770;28;99812;-63
2022/12/04 05:25:42;;;;;;;79.32;36.80;;;;;;;;;;5025875;27;99382;-63
2022/12/04 05:28:08;;;;;;;80.25;37.28;;;;;;;;;;5017159;28;100013;-63
2022/12/04 05:30:34;;;;;;;76.85;36.45;;;;;;;;;;5005707;28;99473;-62
2022/12/04 05:33:01;;;;;;;74.35;35.20;;;;;;;;;;5003925;28;98847;-63
2022/12/04 05:35:27;;;;;;;74.35;36.47;;;;;;;;;;5026652;27;99212;-62
2022/12/04 05:37:53;;;;;;;77.63;36.13;;;;;;;;;;5007947;28;100579;-62
2022/12/04 05:40:20;;;;;;;82.72;37.13;;;;;;;;;;5009779;28;99211;-62
2022/12/04 05:42:46;;;;;;;73.38;36.17;;;;;;;;;;5017192;27;98559;-62
2022/12/04 05:45:12;;;;;;;74.38;35.33;;;;;;;;;;5025527;28;98551;-65
2022/12/04 05:47:42;;;;;;;74.72;37.55;;;;;;;;;;5007794;28;100388;-65
2022/12/04 05:50:10;;;;;;;74.50;35.40;;;;;;;;;;5009010;28;101183;-65
2022/12/04 05:52:36;;;;;;;72.10;35.72;;;;;;;;;;5010698;27;99323;-63
2022/12/04 05:55:02;;;;;;;83.25;36.83;;;;;;;;;;5030339;27;100955;-62
2022/12/04 05:57:29;;;;;;;74.45;35.20;;;;;;;;;;5016840;27;99476;-62
2022/12/04 05:59:55;;;;;;;72.53;35.78;;;;;;;;;;5009758;28;99238;-62
2022/12/04 06:02:22;;;;;;;81.50;37.13;;;;;;;;;;5009735;27;99525;-63
2022/12/04 06:04:48;;;;;;;72.60;34.78;;;;;;;;;;5004160;28;99200;-62
2022/12/04 06:07:14;;;;;;;75.63;36.42;;;;;;;;;;5007364;28;102248;-62
2022/12/04 06:09:41;;;;;;;80.50;34.83;;;;;;;;;;5009290;28;99497;-63
2022/12/04 06:12:07;;;;;;;73.07;35.42;;;;;;;;;;5009837;28;98509;-62
2022/12/04 06:14:33;;;;;;;78.63;35.67;;;;;;;;;;5008262;28;100296;-62
2022/12/04 06:17:04;;;;;;;69.57;33.65;;;;;;;;;;5007505;28;99794;-63
2022/12/04 06:19:31;;;;;;;70.13;34.00;;;;;;;;;;5012991;28;98517;-62
2022/12/04 06:21:57;;;;;;;75.32;34.47;;;;;;;;;;5009323;28;100742;-62
2022/12/04 06:24:23;;;;;;;73.80;34.40;;;;;;;;;;5008137;28;98577;-64
2022/12/04 06:26:54;;;;;;;77.32;36.08;;;;;;;;;;5008929;28;99777;-62
2022/12/04 06:29:40;;;;;;;72.90;34.45;;;;;;;;;;5009149;28;99372;-62
2022/12/04 06:32:06;;;;;;;72.47;34.28;;;;;;;;;;5009710;28;97807;-62
2022/12/04 06:34:34;;;;;;;69.03;33.50;;;;;;;;;;5009901;28;98576;-62
2022/12/04 06:37:00;;;;;;;70.22;31.25;;;;;;;;;;5008140;28;100071;-62
2022/12/04 06:39:27;;;;;;;65.80;32.58;;;;;;;;;;5005717;28;99434;-63
2022/12/04 06:41:53;;;;;;;75.18;35.42;;;;;;;;;;5022683;28;101145;-62
2022/12/04 06:44:20;;;;;;;85.10;34.38;;;;;;;;;;5008566;28;98727;-62
2022/12/04 06:46:47;;;;;;;72.70;33.63;;;;;;;;;;5012023;28;99590;-64
2022/12/04 06:49:15;;;;;;;69.28;32.42;;;;;;;;;;5023028;27;99452;-62
2022/12/04 06:51:41;;;;;;;72.30;31.67;;;;;;;;;;5014957;28;98873;-63
2022/12/04 06:54:08;;;;;;;70.38;33.90;;;;;;;;;;5028927;27;99206;-63
2022/12/04 06:56:34;;;;;;;74.70;35.22;;;;;;;;;;5017664;27;98749;-63
2022/12/04 06:59:02;;;;;;;64.65;32.67;;;;;;;;;;5008429;28;98519;-63
2022/12/04 07:01:29;;;;;;;69.30;32.03;;;;;;;;;;5013183;28;100861;-63
2022/12/04 07:03:56;;;;;;;73.95;34.80;;;;;;;;;;5021578;28;100209;-63
2022/12/04 07:06:24;;;;;;;67.05;32.22;;;;;;;;;;5015461;27;99932;-63
2022/12/04 07:08:52;;;;;;;68.15;32.30;;;;;;;;;;5010637;28;99674;-62
2022/12/04 07:11:20;;;;;;;75.50;33.22;;;;;;;;;;5012661;28;98575;-63
2022/12/04 07:13:47;;;;;;;69.80;33.08;;;;;;;;;;5013321;27;99278;-63
2022/12/04 07:16:14;;;;;;;73.35;32.72;;;;;;;;;;5009514;28;100207;-63
2022/12/04 07:18:41;;;;;;;65.78;32.13;;;;;;;;;;5007561;28;98821;-63
2022/12/04 07:21:09;;;;;;;73.43;33.65;;;;;;;;;;5007300;27;99588;-63
2022/12/04 07:23:36;;;;;;;66.88;32.97;;;;;;;;;;5018420;28;99439;-62
2022/12/04 07:26:03;;;;;;;71.00;33.97;;;;;;;;;;5024615;27;98594;-63
2022/12/04 07:28:30;;;;;;;66.38;32.58;;;;;;;;;;5017039;28;100309;-63
2022/12/04 07:30:56;;;;;;;66.63;32.60;;;;;;;;;;5014884;28;98590;-62
2022/12/04 07:33:22;;;;;;;71.18;31.58;;;;;;;;;;5008890;28;100309;-62
2022/12/04 07:35:55;;;;;;;65.00;31.83;;;;;;;;;;5016382;28;99526;-63
2022/12/04 07:38:22;;;;;;;73.78;34.75;;;;;;;;;;5016600;28;98592;-63
2022/12/04 07:40:48;;;;;;;73.38;33.85;;;;;;;;;;5024595;27;99285;-63
2022/12/04 07:43:14;;;;;;;69.70;33.38;;;;;;;;;;5005717;28;100193;-63
2022/12/04 07:45:41;;;;;;;74.13;32.67;;;;;;;;;;5009297;28;98656;-64
2022/12/04 07:48:07;;;;;;;70.85;33.13;;;;;;;;;;5014959;28;98585;-62
2022/12/04 07:50:33;;;;;;;75.70;33.30;;;;;;;;;;5006618;28;98865;-63
2022/12/04 07:52:59;;;;;;;71.40;31.83;;;;;;;;;;5011812;28;99410;-62
2022/12/04 07:55:26;;;;;;;70.88;32.00;;;;;;;;;;5008768;27;103483;-64
2022/12/04 07:57:52;;;;;;;74.57;35.00;;;;;;;;;;5011183;28;98630;-63
2022/12/04 08:00:18;;;;;;;76.35;34.22;;;;;;;;;;5010694;28;99219;-63
2022/12/04 08:02:45;;;;;;;69.22;31.38;;;;;;;;;;5011795;28;99596;-62
2022/12/04 08:05:11;;;;;;;78.57;35.58;;;;;;;;;;5009684;28;99975;-63
2022/12/04 08:07:37;;;;;;;68.93;33.15;;;;;;;;;;5015105;28;100097;-63
2022/12/04 08:10:04;;;;;;;73.68;33.78;;;;;;;;;;5019553;28;98184;-64
2022/12/04 08:12:31;;;;;;;75.93;34.22;;;;;;;;;;5011166;27;99926;-64
2022/12/04 08:14:58;;;;;;;72.13;33.72;;;;;;;;;;5008224;28;100126;-63
2022/12/04 08:17:24;;;;;;;71.38;32.13;;;;;;;;;;5008417;28;99334;-61
2022/12/04 08:19:51;;;;;;;70.53;32.58;;;;;;;;;;5009840;28;101246;-64
2022/12/04 08:22:17;;;;;;;79.07;35.88;;;;;;;;;;5011052;28;99883;-63
2022/12/04 08:24:50;;;;;;;71.97;33.70;;;;;;;;;;5012965;28;98684;-64
2022/12/04 08:27:16;;;;;;;75.85;35.05;;;;;;;;;;5023553;27;99555;-63
2022/12/04 08:29:42;;;;;;;74.68;32.97;;;;;;;;;;5034531;27;99502;-63
2022/12/04 08:32:09;;;;;;;73.40;32.88;;;;;;;;;;5011822;27;99270;-62
2022/12/04 08:34:35;;;;;;;70.05;33.05;;;;;;;;;;5014984;28;99777;-63
2022/12/04 08:37:01;;;;;;;72.35;33.10;;;;;;;;;;5009889;28;98665;-62
2022/12/04 08:39:28;;;;;;;74.05;34.92;;;;;;;;;;5031982;27;99231;-62
2022/12/04 08:41:54;;;;;;;73.05;33.47;;;;;;;;;;5028025;27;101227;-62
2022/12/04 08:44:22;;;;;;;77.93;33.60;;;;;;;;;;5030703;27;98629;-62
2022/12/04 08:46:48;;;;;;;70.53;33.45;;;;;;;;;;5016729;27;99369;-62
2022/12/04 08:49:15;;;;;;;66.03;31.52;;;;;;;;;;5010909;28;100008;-62
2022/12/04 08:51:41;;;;;;;75.78;31.77;;;;;;;;;;5015323;28;98582;-63
2022/12/04 08:54:08;;;;;;;73.57;33.38;;;;;;;;;;5008225;28;100450;-70
2022/12/04 08:56:36;;;;;;;68.68;32.05;;;;;;;;;;5010787;27;98586;-69
2022/12/04 08:59:02;;;;;;;67.10;31.40;;;;;;;;;;5006902;28;99903;-69
2022/12/04 09:01:29;;;;;;;66.38;32.25;;;;;;;;;;5020911;27;100066;-68
2022/12/04 09:03:56;;;;;;;74.00;32.03;;;;;;;;;;5009296;28;98706;-71
2022/12/04 09:06:22;;;;;;;68.45;29.95;;;;;;;;;;5004015;27;102442;-69
2022/12/04 09:08:55;;;;;;;69.45;30.92;;;;;;;;;;5025685;28;99542;-68
2022/12/04 09:11:23;;;;;;;68.43;31.35;;;;;;;;;;5030146;28;98670;-69
2022/12/04 09:13:49;;;;;;;71.72;31.63;;;;;;;;;;5016044;27;98568;-67
2022/12/04 09:16:17;;;;;;;68.72;31.23;;;;;;;;;;4997070;28;99350;-69
2022/12/04 09:18:44;;;;;;;68.15;30.85;;;;;;;;;;5010664;28;100093;-67
2022/12/04 09:21:11;;;;;;;70.55;30.83;;;;;;;;;;5019250;27;100202;-66
2022/12/04 09:23:38;;;;;;;78.30;31.55;;;;;;;;;;5001154;28;98848;-67
2022/12/04 09:26:06;;;;;;;64.25;28.85;;;;;;;;;;5021961;28;101675;-68
2022/12/04 09:28:32;;;;;;;67.80;30.15;;;;;;;;;;5010506;28;99489;-67
2022/12/04 09:31:00;;;;;;;67.82;31.30;;;;;;;;;;5007870;28;99676;-67
2022/12/04 09:33:27;;;;;;;66.65;31.20;;;;;;;;;;5001942;28;99927;-66
2022/12/04 09:35:53;;;;;;;65.60;28.52;;;;;;;;;;5006641;28;99605;-68
2022/12/04 09:38:19;;;;;;;65.05;28.90;;;;;;;;;;4994935;28;100089;-67
2022/12/04 09:40:50;;;;;;;66.10;29.48;;;;;;;;;;5012864;28;100521;-68
2022/12/04 09:43:26;;;;;;;66.32;29.77;;;;;;;;;;5023539;27;101490;-67
2022/12/04 09:45:53;;;;;;;65.78;29.13;;;;;;;;;;5008702;28;99261;-69
2022/12/04 09:48:21;;;;;;;65.80;28.73;;;;;;;;;;5011450;28;98818;-68
2022/12/04 09:50:48;;;;;;;69.32;30.58;;;;;;;;;;5016544;27;98778;-68
2022/12/04 09:53:18;;;;;;;67.43;30.23;;;;;;;;;;5010766;28;100266;-70
2022/12/04 09:55:57;;;;;;;67.75;29.33;;;;;;;;;;5010474;28;103508;-68
2022/12/04 09:58:27;;;;;;;60.08;29.00;;;;;;;;;;5010727;28;98608;-69
2022/12/04 10:00:54;;;;;;;62.88;29.42;;;;;;;;;;5008804;28;99823;-69
2022/12/04 10:03:23;;;;;;;65.22;28.77;;;;;;;;;;5029302;28;98753;-69
2022/12/04 10:05:53;;;;;;;65.53;28.73;;;;;;;;;;5027506;28;100735;-69
2022/12/04 10:08:21;;;;;;;67.57;27.97;;;;;;;;;;5015761;28;102454;-68
2022/12/04 10:11:08;;;;;;;57.63;28.20;;;;;;;;;;5010846;28;98539;-68
2022/12/04 10:13:46;;;;;;;63.03;28.25;;;;;;;;;;5011512;28;101750;-69
2022/12/04 10:16:31;;;;;;;60.08;28.83;;;;;;;;;;5017011;28;99484;-69
2022/12/04 10:19:04;;;;;;;64.15;27.20;;;;;;;;;;5033122;27;98552;-69
2022/12/04 10:21:41;;;;;;;55.25;25.20;;;;;;;;;;5029746;27;101231;-68
2022/12/04 10:24:22;;;;;;;55.85;24.67;;;;;;;;;;5009669;27;98641;-67
2022/12/04 10:26:49;;;;;;;52.38;24.85;;;;;;;;;;5026639;28;99355;-67
2022/12/04 10:29:15;;;;;;;50.15;24.35;;;;;;;;;;5012668;27;99421;-69
2022/12/04 10:31:43;;;;;;;58.60;24.08;;;;;;;;;;5022045;28;98762;-73
2022/12/04 10:34:27;;;;;;;55.60;24.52;;;;;;;;;;5030665;27;100269;-69
2022/12/04 10:36:56;;;;;;;56.30;24.58;;;;;;;;;;5010773;27;99809;-70
2022/12/04 10:39:29;;;;;;;48.65;22.63;;;;;;;;;;5010992;28;99022;-69
2022/12/04 10:41:58;;;;;;;49.92;21.90;;;;;;;;;;5017283;28;98616;-68
2022/12/04 10:44:25;;;;;;;44.55;20.67;;;;;;;;;;5008449;28;98703;-70
2022/12/04 10:46:54;;;;;;;50.90;22.60;;;;;;;;;;5009222;28;100338;-66
2022/12/04 10:49:25;;;;;;;47.55;21.67;;;;;;;;;;5026985;27;99738;-67
2022/12/04 10:51:52;;;;;;;44.28;21.08;;;;;;;;;;5008838;28;98526;-69
2022/12/04 10:54:32;;;;;;;46.28;20.85;;;;;;;;;;5008505;28;99228;-69
2022/12/04 10:56:59;;;;;;;46.25;21.10;;;;;;;;;;5020125;28;99763;-70
2022/12/04 10:59:26;;;;;;;49.20;19.80;;;;;;;;;;5014834;27;99769;-69
2022/12/04 11:02:01;;;;;;;41.28;20.38;;;;;;;;;;5009186;28;99195;-70
2022/12/04 11:04:32;;;;;;;46.55;19.65;;;;;;;;;;5012368;28;99207;-70
2022/12/04 11:07:19;;;;;;;44.33;19.83;;;;;;;;;;5024334;28;98816;-68
2022/12/04 11:09:54;;;;;;;45.10;19.33;;;;;;;;;;5028568;27;100463;-69
2022/12/04 11:12:21;;;;;;;44.30;18.55;;;;;;;;;;5009086;28;99574;-68
2022/12/04 11:14:58;;;;;;;42.58;19.60;;;;;;;;;;5009360;28;100959;-68
2022/12/04 11:17:24;;;;;;;39.75;18.23;;;;;;;;;;5007313;28;98601;-69
2022/12/04 11:20:00;;;;;;;41.10;19.15;;;;;;;;;;5007351;28;98665;-71
2022/12/04 11:22:27;;;;;;;41.38;17.60;;;;;;;;;;5028729;27;99661;-68
2022/12/04 11:24:54;;;;;;;35.80;17.63;;;;;;;;;;5026968;28;99487;-68
2022/12/04 11:27:25;;;;;;;31.52;16.55;;;;;;;;;;5027739;28;98586;-68
2022/12/04 11:29:52;;;;;;;37.92;17.40;;;;;;;;;;5028414;27;98985;-69
2022/12/04 11:32:21;;;;;;;40.05;17.70;;;;;;;;;;5027892;27;98503;-70
2022/12/04 11:34:50;;;;;;;36.08;16.50;;;;;;;;;;5010056;27;99576;-70
2022/12/04 11:37:19;;;;;;;34.40;17.40;;;;;;;;;;5013966;28;100236;-68
2022/12/04 11:39:46;;;;;;;34.05;15.82;;;;;;;;;;5029210;27;99261;-70
2022/12/04 11:42:12;;;;;;;36.97;16.55;;;;;;;;;;5010785;27;99374;-72
2022/12/04 11:44:39;;;;;;;35.22;17.10;;;;;;;;;;5008346;28;99410;-72
2022/12/04 11:47:14;;;;;;;34.10;15.77;;;;;;;;;;5007531;28;98750;-71
2022/12/04 11:49:40;;;;;;;30.92;15.85;;;;;;;;;;5012037;28;99250;-69
2022/12/04 11:52:09;;;;;;;35.03;16.77;;;;;;;;;;5009222;28;98535;-70
2022/12/04 11:54:51;;;;;;;31.52;15.23;;;;;;;;;;5009626;28;99560;-71
2022/12/04 11:57:29;;;;;;;29.52;15.25;;;;;;;;;;5019253;28;99354;-70
2022/12/04 11:59:55;;;;;;;30.95;15.15;;;;;;;;;;5029026;27;98596;-71
2022/12/04 12:02:28;;;;;;;36.70;15.85;;;;;;;;;;5028877;27;99234;-70
2022/12/04 12:04:57;;;;;;;30.80;15.80;;;;;;;;;;5013825;27;99481;-69
2022/12/04 12:07:33;;;;;;;33.03;16.85;;;;;;;;;;5018954;28;98647;-67
2022/12/04 12:10:02;;;;;;;26.95;15.02;;;;;;;;;;5030950;28;100299;-69
2022/12/04 12:12:39;;;;;;;27.92;15.43;;;;;;;;;;5015649;27;98458;-69
2022/12/04 12:15:25;;;;;;;30.20;15.52;;;;;;;;;;5008238;28;99139;-68
2022/12/04 12:18:05;;;;;;;32.78;15.05;;;;;;;;;;5018690;28;99528;-67
2022/12/04 12:20:35;;;;;;;29.50;15.63;;;;;;;;;;5016246;27;97799;-67
2022/12/04 12:23:10;;;;;;;29.83;15.07;;;;;;;;;;5008603;28;98801;-69
2022/12/04 12:25:48;;;;;;;32.05;14.65;;;;;;;;;;5008258;28;99671;-68
2022/12/04 12:28:23;;;;;;;27.92;14.20;;;;;;;;;;5025643;28;99430;-69
2022/12/04 12:31:08;;;;;;;28.88;14.30;;;;;;;;;;5028839;27;100373;-68
2022/12/04 12:33:43;;;;;;;32.28;15.68;;;;;;;;;;5028627;27;103097;-68
2022/12/04 12:36:11;;;;;;;25.10;13.55;;;;;;;;;;5019854;28;99417;-69
2022/12/04 12:38:40;;;;;;;30.50;14.70;;;;;;;;;;5021912;28;99478;-68
2022/12/04 12:41:11;;;;;;;24.80;13.07;;;;;;;;;;5027391;27;98501;-68
2022/12/04 12:43:37;;;;;;;;;;;;;;;;;;5032495;27;100258;-68
2022/12/04 12:46:06;;;;;;;30.15;14.73;;;;;;;;;;5023863;27;128258;-68
2022/12/04 12:48:51;;;;;;;26.67;13.77;;;;;;;;;;5023330;28;98958;-69
2022/12/04 12:51:32;;;;;;;27.08;13.60;;;;;;;;;;5018238;27;99208;-68
2022/12/04 12:54:18;;;;;;;53.55;25.83;;;;;;;;;;5031324;27;100450;-68
2022/12/04 12:56:48;;;;;;;28.92;16.10;;;;;;;;;;5029953;28;98775;-69
2022/12/04 12:59:23;;;;;;;34.08;18.70;;;;;;;;;;5011484;28;99773;-68
2022/12/04 13:02:02;;;;;;;26.33;14.13;;;;;;;;;;5007112;28;98631;-68
2022/12/04 13:04:29;;;;;;;25.88;13.80;;;;;;;;;;5021536;27;99232;-67
2022/12/04 13:07:14;;;;;;;43.45;23.23;;;;;;;;;;5031528;27;99871;-68
2022/12/04 13:09:43;;;;;;;30.85;16.90;;;;;;;;;;5029349;27;98521;-67
2022/12/04 13:12:12;;;;;;;38.85;18.33;;;;;;;;;;5029862;28;100427;-69
2022/12/04 13:14:38;;;;;;;36.65;16.85;;;;;;;;;;5026379;27;99686;-68
2022/12/04 13:17:19;;;;;;;82.22;36.20;;;;;;;;;;5010877;27;98797;-68
2022/12/04 13:19:48;;;;;;;35.63;16.75;;;;;;;;;;5009808;28;100341;-67
2022/12/04 13:22:29;;;;;;;26.80;15.00;;;;;;;;;;5006454;28;100082;-68
2022/12/04 13:25:15;;;;;;;25.67;13.98;;;;;;;;;;4994703;28;99882;-69
2022/12/04 13:27:50;;;;;;;27.38;14.57;;;;;;;;;;5001240;28;100457;-66
2022/12/04 13:30:21;;;;;;;27.27;14.38;;;;;;;;;;5016812;28;98729;-68
2022/12/04 13:33:11;;;;;;;29.65;14.88;;;;;;;;;;5010819;28;100240;-69
2022/12/04 13:36:10;;;;;;;25.52;14.13;;;;;;;;;;5010461;28;99696;-69
2022/12/04 13:38:55;;;;;;;29.75;14.65;;;;;;;;;;4972730;28;98141;-69
2022/12/04 13:41:24;;;;;;;31.63;18.38;;;;;;;;;;4994032;28;100420;-67
2022/12/04 13:43:51;;;;;;;27.15;14.32;;;;;;;;;;4987505;28;99650;-68
2022/12/04 13:46:29;;;;;;;26.42;14.13;;;;;;;;;;4988517;28;99556;-68
2022/12/04 13:49:14;;;;;;;26.52;14.13;;;;;;;;;;4993583;28;99520;-69
2022/12/04 13:51:40;;;;;;;25.42;14.88;;;;;;;;;;4980638;28;98599;-68
2022/12/04 13:54:10;;;;;;;34.38;14.32;;;;;;;;;;5007175;28;100300;-66
2022/12/04 13:56:37;;;;;;;31.77;14.35;;;;;;;;;;5006192;28;99524;-69
2022/12/04 13:59:05;;;;;;;29.17;16.38;;;;;;;;;;5006462;28;99039;-66
2022/12/04 14:01:31;;;;;;;29.90;14.88;;;;;;;;;;5005572;28;99217;-67
2022/12/04 14:03:58;;;;;;;31.25;16.95;;;;;;;;;;4986328;28;99084;-68
2022/12/04 14:06:30;;;;;;;29.23;17.05;;;;;;;;;;4994561;28;98726;-68
2022/12/04 14:08:59;;;;;;;38.85;21.38;;;;;;;;;;4984870;28;99734;-69
2022/12/04 14:11:26;;;;;;;31.02;16.35;;;;;;;;;;5008369;28;99372;-68
2022/12/04 14:13:55;;;;;;;29.40;16.15;;;;;;;;;;5013346;28;100243;-69
2022/12/04 14:16:24;;;;;;;29.33;16.55;;;;;;;;;;5018391;27;99368;-68
2022/12/04 14:18:52;;;;;;;34.15;17.70;;;;;;;;;;5011123;27;98610;-69
2022/12/04 14:21:18;;;;;;;29.88;15.95;;;;;;;;;;5013199;28;99067;-69
2022/12/04 14:23:45;;;;;;;39.40;19.80;;;;;;;;;;5011981;27;99758;-68
2022/12/04 14:26:38;;;;;;;34.75;17.67;;;;;;;;;;5014114;28;98467;-69
2022/12/04 14:29:28;;;;;;;35.33;16.83;;;;;;;;;;5030417;27;98390;-68
2022/12/04 14:31:54;;;;;;;;;;;;;;;;;;5031034;27;98976;-69
2022/12/04 14:34:22;;;;;;;40.20;19.17;;;;;;;;;;5030563;28;130026;-68
2022/12/04 14:36:50;;;;;;;36.80;19.33;;;;;;;;;;5029569;27;101333;-67
2022/12/04 14:39:28;;;;;;;37.08;19.42;;;;;;;;;;5012360;28;100228;-69
2022/12/04 14:42:13;;;;;;;39.08;18.73;;;;;;;;;;5026100;28;100584;-69